Terminal Aerodrome Forecast
Issued by NWS Sterling, VA

Home | Current Version | Previous Version | Text Only | Print | Product List | Glossary On
Versions: 1 2 3 4 5 6 7 8 9 10 11 12 13 14 15 16
000
FTUS41 KLWX 011100
TAFCHO
TAF
KCHO 011139Z 0112/0212 VRB04KT P6SM OVC080
     FM020000 16005KT 6SM -RA OVC030
     FM020300 18005KT 2SM RA OVC015
     FM020800 19006KT 3SM -RA OVC007
     FM021100 19006KT 3SM -RA BR OVC005 WS020/22040KT=

USA.gov is the U.S. government's official web portal to all federal, state and local government web resources and services.